sensor_id;sensor_type;location;lat;lon;timestamp;P1;durP1;ratioP1;P2;durP2;ratioP2
9720;SDS011;4899;42.644;23.366;2023-10-19T00:01:13;14.93;;;13.20;;
9720;SDS011;4899;42.644;23.366;2023-10-19T00:03:40;15.07;;;13.47;;
9720;SDS011;4899;42.644;23.366;2023-10-19T00:06:05;16.47;;;14.07;;
9720;SDS011;4899;42.644;23.366;2023-10-19T00:08:31;14.17;;;12.77;;
9720;SDS011;4899;42.644;23.366;2023-10-19T00:11:22;15.00;;;13.13;;
9720;SDS011;4899;42.644;23.366;2023-10-19T00:13:49;17.27;;;14.00;;
9720;SDS011;4899;42.644;23.366;2023-10-19T00:16:22;15.13;;;13.33;;
9720;SDS011;4899;42.644;23.366;2023-10-19T00:18:51;14.27;;;12.77;;
9720;SDS011;4899;42.644;23.366;2023-10-19T00:21:19;14.73;;;12.23;;
9720;SDS011;4899;42.644;23.366;2023-10-19T00:23:45;15.47;;;13.30;;
9720;SDS011;4899;42.644;23.366;2023-10-19T00:26:15;16.00;;;13.80;;
9720;SDS011;4899;42.644;23.366;2023-10-19T00:28:42;15.77;;;13.80;;
9720;SDS011;4899;42.644;23.366;2023-10-19T00:31:10;14.67;;;12.97;;
9720;SDS011;4899;42.644;23.366;2023-10-19T00:33:36;15.03;;;12.77;;
9720;SDS011;4899;42.644;23.366;2023-10-19T00:36:08;14.57;;;12.83;;
9720;SDS011;4899;42.644;23.366;2023-10-19T00:38:35;14.47;;;12.97;;
9720;SDS011;4899;42.644;23.366;2023-10-19T00:41:00;15.03;;;12.90;;
9720;SDS011;4899;42.644;23.366;2023-10-19T00:43:35;13.60;;;12.20;;
9720;SDS011;4899;42.644;23.366;2023-10-19T00:48:56;14.03;;;11.60;;
9720;SDS011;4899;42.644;23.366;2023-10-19T00:51:44;14.47;;;13.07;;
9720;SDS011;4899;42.644;23.366;2023-10-19T00:56:52;12.53;;;11.23;;
9720;SDS011;4899;42.644;23.366;2023-10-19T00:59:21;12.17;;;11.07;;
9720;SDS011;4899;42.644;23.366;2023-10-19T01:01:51;12.20;;;11.00;;
9720;SDS011;4899;42.644;23.366;2023-10-19T01:04:23;11.27;;;10.17;;
9720;SDS011;4899;42.644;23.366;2023-10-19T01:06:50;11.77;;;10.63;;
9720;SDS011;4899;42.644;23.366;2023-10-19T01:09:36;11.60;;;10.50;;
9720;SDS011;4899;42.644;23.366;2023-10-19T01:12:04;12.70;;;11.40;;
9720;SDS011;4899;42.644;23.366;2023-10-19T01:17:35;12.67;;;11.30;;
9720;SDS011;4899;42.644;23.366;2023-10-19T01:20:07;11.83;;;10.63;;
9720;SDS011;4899;42.644;23.366;2023-10-19T01:22:53;13.73;;;10.93;;
9720;SDS011;4899;42.644;23.366;2023-10-19T01:25:31;13.83;;;12.10;;
9720;SDS011;4899;42.644;23.366;2023-10-19T01:28:01;18.47;;;14.97;;
9720;SDS011;4899;42.644;23.366;2023-10-19T01:30:32;14.63;;;12.90;;
9720;SDS011;4899;42.644;23.366;2023-10-19T01:32:58;14.40;;;12.90;;
9720;SDS011;4899;42.644;23.366;2023-10-19T01:35:23;15.70;;;14.07;;
9720;SDS011;4899;42.644;23.366;2023-10-19T01:37:49;13.77;;;12.37;;
9720;SDS011;4899;42.644;23.366;2023-10-19T01:40:14;16.40;;;12.73;;
9720;SDS011;4899;42.644;23.366;2023-10-19T01:42:45;14.67;;;11.87;;
9720;SDS011;4899;42.644;23.366;2023-10-19T01:45:10;13.73;;;12.07;;
9720;SDS011;4899;42.644;23.366;2023-10-19T01:47:36;14.10;;;12.70;;
9720;SDS011;4899;42.644;23.366;2023-10-19T01:50:01;16.90;;;13.73;;
9720;SDS011;4899;42.644;23.366;2023-10-19T01:52:28;15.93;;;13.60;;
9720;SDS011;4899;42.644;23.366;2023-10-19T01:54:53;13.70;;;12.40;;
9720;SDS011;4899;42.644;23.366;2023-10-19T01:57:25;14.97;;;12.73;;
9720;SDS011;4899;42.644;23.366;2023-10-19T01:59:50;15.40;;;13.80;;
9720;SDS011;4899;42.644;23.366;2023-10-19T02:02:16;15.20;;;13.60;;
9720;SDS011;4899;42.644;23.366;2023-10-19T02:04:41;14.50;;;12.80;;
9720;SDS011;4899;42.644;23.366;2023-10-19T02:07:07;14.63;;;12.23;;
9720;SDS011;4899;42.644;23.366;2023-10-19T02:09:38;14.57;;;13.00;;
9720;SDS011;4899;42.644;23.366;2023-10-19T02:12:04;14.70;;;13.20;;
9720;SDS011;4899;42.644;23.366;2023-10-19T02:14:32;14.70;;;13.20;;
9720;SDS011;4899;42.644;23.366;2023-10-19T02:16:59;13.43;;;12.13;;
9720;SDS011;4899;42.644;23.366;2023-10-19T02:19:27;14.97;;;13.37;;
9720;SDS011;4899;42.644;23.366;2023-10-19T02:21:53;15.77;;;13.10;;
9720;SDS011;4899;42.644;23.366;2023-10-19T02:24:19;14.67;;;12.73;;
9720;SDS011;4899;42.644;23.366;2023-10-19T02:26:45;17.80;;;15.23;;
9720;SDS011;4899;42.644;23.366;2023-10-19T02:29:12;19.13;;;16.27;;
9720;SDS011;4899;42.644;23.366;2023-10-19T02:31:38;16.70;;;14.50;;
9720;SDS011;4899;42.644;23.366;2023-10-19T02:34:05;17.67;;;14.33;;
9720;SDS011;4899;42.644;23.366;2023-10-19T02:36:32;18.13;;;16.00;;
9720;SDS011;4899;42.644;23.366;2023-10-19T02:38:59;18.80;;;15.37;;
9720;SDS011;4899;42.644;23.366;2023-10-19T02:41:25;18.00;;;16.07;;
9720;SDS011;4899;42.644;23.366;2023-10-19T02:43:52;18.47;;;15.50;;
9720;SDS011;4899;42.644;23.366;2023-10-19T02:46:29;20.23;;;16.53;;
9720;SDS011;4899;42.644;23.366;2023-10-19T02:48:59;17.20;;;15.37;;
9720;SDS011;4899;42.644;23.366;2023-10-19T02:51:25;17.90;;;16.10;;
9720;SDS011;4899;42.644;23.366;2023-10-19T02:53:51;18.00;;;15.87;;
9720;SDS011;4899;42.644;23.366;2023-10-19T02:56:16;22.03;;;16.67;;
9720;SDS011;4899;42.644;23.366;2023-10-19T02:58:43;18.73;;;15.90;;
9720;SDS011;4899;42.644;23.366;2023-10-19T03:01:27;18.57;;;15.23;;
9720;SDS011;4899;42.644;23.366;2023-10-19T03:03:56;18.97;;;15.63;;
9720;SDS011;4899;42.644;23.366;2023-10-19T03:06:25;18.77;;;15.80;;
9720;SDS011;4899;42.644;23.366;2023-10-19T03:08:50;19.30;;;15.70;;
9720;SDS011;4899;42.644;23.366;2023-10-19T03:11:42;17.53;;;15.57;;
9720;SDS011;4899;42.644;23.366;2023-10-19T03:14:08;19.03;;;15.73;;
9720;SDS011;4899;42.644;23.366;2023-10-19T03:16:33;20.60;;;15.87;;
9720;SDS011;4899;42.644;23.366;2023-10-19T03:19:00;19.07;;;15.87;;
9720;SDS011;4899;42.644;23.366;2023-10-19T03:21:25;19.37;;;15.17;;
9720;SDS011;4899;42.644;23.366;2023-10-19T03:23:57;16.70;;;14.93;;
9720;SDS011;4899;42.644;23.366;2023-10-19T03:26:23;17.03;;;15.07;;
9720;SDS011;4899;42.644;23.366;2023-10-19T03:28:55;17.20;;;15.33;;
9720;SDS011;4899;42.644;23.366;2023-10-19T03:31:21;15.07;;;13.60;;
9720;SDS011;4899;42.644;23.366;2023-10-19T03:33:48;15.17;;;13.57;;
9720;SDS011;4899;42.644;23.366;2023-10-19T03:36:19;16.53;;;14.23;;
9720;SDS011;4899;42.644;23.366;2023-10-19T03:38:45;16.30;;;13.97;;
9720;SDS011;4899;42.644;23.366;2023-10-19T03:41:11;15.57;;;12.87;;
9720;SDS011;4899;42.644;23.366;2023-10-19T03:43:36;16.87;;;15.07;;
9720;SDS011;4899;42.644;23.366;2023-10-19T03:46:06;17.50;;;15.07;;
9720;SDS011;4899;42.644;23.366;2023-10-19T03:48:39;18.37;;;15.17;;
9720;SDS011;4899;42.644;23.366;2023-10-19T03:51:05;21.60;;;17.17;;
9720;SDS011;4899;42.644;23.366;2023-10-19T03:53:30;21.17;;;16.20;;
9720;SDS011;4899;42.644;23.366;2023-10-19T03:55:57;17.10;;;14.60;;
9720;SDS011;4899;42.644;23.366;2023-10-19T03:58:23;23.27;;;17.23;;
9720;SDS011;4899;42.644;23.366;2023-10-19T04:00:48;21.47;;;16.23;;
9720;SDS011;4899;42.644;23.366;2023-10-19T04:03:16;19.47;;;15.07;;
9720;SDS011;4899;42.644;23.366;2023-10-19T04:05:49;19.60;;;14.70;;
9720;SDS011;4899;42.644;23.366;2023-10-19T04:08:15;21.97;;;14.73;;
9720;SDS011;4899;42.644;23.366;2023-10-19T04:10:45;16.77;;;14.63;;
9720;SDS011;4899;42.644;23.366;2023-10-19T04:13:12;15.83;;;13.47;;
9720;SDS011;4899;42.644;23.366;2023-10-19T04:15:38;16.83;;;12.63;;
9720;SDS011;4899;42.644;23.366;2023-10-19T04:18:04;14.83;;;13.33;;
9720;SDS011;4899;42.644;23.366;2023-10-19T04:20:36;16.50;;;12.30;;
9720;SDS011;4899;42.644;23.366;2023-10-19T04:23:27;15.43;;;12.60;;
9720;SDS011;4899;42.644;23.366;2023-10-19T04:25:53;13.10;;;11.77;;
9720;SDS011;4899;42.644;23.366;2023-10-19T04:28:21;13.13;;;11.73;;
9720;SDS011;4899;42.644;23.366;2023-10-19T04:30:55;17.13;;;13.87;;
9720;SDS011;4899;42.644;23.366;2023-10-19T04:33:20;15.70;;;13.60;;
9720;SDS011;4899;42.644;23.366;2023-10-19T04:35:47;14.23;;;12.73;;
9720;SDS011;4899;42.644;23.366;2023-10-19T04:38:20;13.87;;;12.47;;
9720;SDS011;4899;42.644;23.366;2023-10-19T04:40:46;14.23;;;11.73;;
9720;SDS011;4899;42.644;23.366;2023-10-19T04:43:11;19.27;;;14.30;;
9720;SDS011;4899;42.644;23.366;2023-10-19T04:45:39;13.90;;;12.30;;
9720;SDS011;4899;42.644;23.366;2023-10-19T04:48:04;13.10;;;11.73;;
9720;SDS011;4899;42.644;23.366;2023-10-19T04:50:30;13.50;;;10.50;;
9720;SDS011;4899;42.644;23.366;2023-10-19T04:52:56;12.90;;;11.53;;
9720;SDS011;4899;42.644;23.366;2023-10-19T04:55:21;14.30;;;11.40;;
9720;SDS011;4899;42.644;23.366;2023-10-19T04:57:46;13.67;;;11.30;;
9720;SDS011;4899;42.644;23.366;2023-10-19T05:00:12;12.67;;;11.27;;
9720;SDS011;4899;42.644;23.366;2023-10-19T05:02:38;15.17;;;10.83;;
9720;SDS011;4899;42.644;23.366;2023-10-19T05:05:04;11.30;;;10.07;;
9720;SDS011;4899;42.644;23.366;2023-10-19T05:07:29;11.73;;;10.37;;
9720;SDS011;4899;42.644;23.366;2023-10-19T05:09:54;12.53;;;11.23;;
9720;SDS011;4899;42.644;23.366;2023-10-19T05:12:19;11.80;;;10.60;;
9720;SDS011;4899;42.644;23.366;2023-10-19T05:14:46;12.10;;;10.87;;
9720;SDS011;4899;42.644;23.366;2023-10-19T05:17:11;12.30;;;11.00;;
9720;SDS011;4899;42.644;23.366;2023-10-19T05:19:37;12.57;;;11.10;;
9720;SDS011;4899;42.644;23.366;2023-10-19T05:22:04;13.20;;;11.77;;
9720;SDS011;4899;42.644;23.366;2023-10-19T05:24:29;13.87;;;12.43;;
9720;SDS011;4899;42.644;23.366;2023-10-19T05:26:55;14.70;;;13.13;;
9720;SDS011;4899;42.644;23.366;2023-10-19T05:29:20;13.87;;;12.47;;
9720;SDS011;4899;42.644;23.366;2023-10-19T05:31:46;10.80;;;9.70;;
9720;SDS011;4899;42.644;23.366;2023-10-19T05:34:11;11.67;;;10.00;;
9720;SDS011;4899;42.644;23.366;2023-10-19T05:36:36;9.80;;;8.80;;
9720;SDS011;4899;42.644;23.366;2023-10-19T05:39:02;8.90;;;8.07;;
9720;SDS011;4899;42.644;23.366;2023-10-19T05:41:29;8.63;;;7.40;;
9720;SDS011;4899;42.644;23.366;2023-10-19T05:43:56;10.40;;;7.13;;
9720;SDS011;4899;42.644;23.366;2023-10-19T05:46:21;10.73;;;7.50;;
9720;SDS011;4899;42.644;23.366;2023-10-19T05:48:50;7.80;;;7.10;;
9720;SDS011;4899;42.644;23.366;2023-10-19T05:51:15;10.07;;;7.73;;
9720;SDS011;4899;42.644;23.366;2023-10-19T05:53:42;9.53;;;8.63;;
9720;SDS011;4899;42.644;23.366;2023-10-19T05:56:08;8.67;;;7.87;;
9720;SDS011;4899;42.644;23.366;2023-10-19T05:58:34;10.00;;;9.00;;
9720;SDS011;4899;42.644;23.366;2023-10-19T06:00:59;8.80;;;8.00;;
9720;SDS011;4899;42.644;23.366;2023-10-19T06:03:24;9.97;;;8.93;;
9720;SDS011;4899;42.644;23.366;2023-10-19T06:05:50;9.47;;;8.57;;
9720;SDS011;4899;42.644;23.366;2023-10-19T06:08:15;8.97;;;8.07;;
9720;SDS011;4899;42.644;23.366;2023-10-19T06:10:40;8.50;;;7.70;;
9720;SDS011;4899;42.644;23.366;2023-10-19T06:13:07;9.00;;;8.10;;
9720;SDS011;4899;42.644;23.366;2023-10-19T06:15:35;9.73;;;8.73;;
9720;SDS011;4899;42.644;23.366;2023-10-19T06:18:00;9.67;;;8.37;;
9720;SDS011;4899;42.644;23.366;2023-10-19T06:20:25;8.83;;;8.00;;
9720;SDS011;4899;42.644;23.366;2023-10-19T06:22:54;9.80;;;8.40;;
9720;SDS011;4899;42.644;23.366;2023-10-19T06:25:21;7.93;;;7.30;;
9720;SDS011;4899;42.644;23.366;2023-10-19T06:27:47;8.60;;;7.80;;
9720;SDS011;4899;42.644;23.366;2023-10-19T06:30:13;7.00;;;6.30;;
9720;SDS011;4899;42.644;23.366;2023-10-19T06:32:43;7.23;;;6.50;;
9720;SDS011;4899;42.644;23.366;2023-10-19T06:35:08;7.53;;;6.77;;
9720;SDS011;4899;42.644;23.366;2023-10-19T06:37:36;6.70;;;6.10;;
9720;SDS011;4899;42.644;23.366;2023-10-19T06:40:01;6.77;;;6.17;;
9720;SDS011;4899;42.644;23.366;2023-10-19T06:42:27;8.60;;;6.60;;
9720;SDS011;4899;42.644;23.366;2023-10-19T06:44:52;6.90;;;6.23;;
9720;SDS011;4899;42.644;23.366;2023-10-19T06:47:20;6.87;;;6.20;;
9720;SDS011;4899;42.644;23.366;2023-10-19T06:49:47;6.93;;;6.37;;
9720;SDS011;4899;42.644;23.366;2023-10-19T06:52:13;8.97;;;6.67;;
9720;SDS011;4899;42.644;23.366;2023-10-19T06:54:38;6.87;;;6.17;;
9720;SDS011;4899;42.644;23.366;2023-10-19T06:57:04;7.57;;;6.87;;
9720;SDS011;4899;42.644;23.366;2023-10-19T06:59:29;7.73;;;6.97;;
9720;SDS011;4899;42.644;23.366;2023-10-19T07:01:54;7.00;;;6.40;;
9720;SDS011;4899;42.644;23.366;2023-10-19T07:04:19;7.70;;;7.00;;
9720;SDS011;4899;42.644;23.366;2023-10-19T07:06:45;8.93;;;8.13;;
9720;SDS011;4899;42.644;23.366;2023-10-19T07:09:12;8.00;;;7.30;;
9720;SDS011;4899;42.644;23.366;2023-10-19T07:11:38;8.70;;;6.70;;
9720;SDS011;4899;42.644;23.366;2023-10-19T07:14:03;7.87;;;7.17;;
9720;SDS011;4899;42.644;23.366;2023-10-19T07:16:31;6.97;;;6.27;;
9720;SDS011;4899;42.644;23.366;2023-10-19T07:18:57;7.23;;;6.53;;
9720;SDS011;4899;42.644;23.366;2023-10-19T07:21:24;6.50;;;6.00;;
9720;SDS011;4899;42.644;23.366;2023-10-19T07:23:50;7.07;;;6.33;;
9720;SDS011;4899;42.644;23.366;2023-10-19T07:26:17;6.23;;;5.73;;
9720;SDS011;4899;42.644;23.366;2023-10-19T07:28:44;6.03;;;5.53;;
9720;SDS011;4899;42.644;23.366;2023-10-19T07:31:10;7.30;;;6.67;;
9720;SDS011;4899;42.644;23.366;2023-10-19T07:33:40;6.23;;;5.73;;
9720;SDS011;4899;42.644;23.366;2023-10-19T07:36:13;6.40;;;5.80;;
9720;SDS011;4899;42.644;23.366;2023-10-19T07:38:43;6.20;;;5.70;;
9720;SDS011;4899;42.644;23.366;2023-10-19T07:41:10;5.43;;;4.93;;
9720;SDS011;4899;42.644;23.366;2023-10-19T07:43:36;6.53;;;5.93;;
9720;SDS011;4899;42.644;23.366;2023-10-19T07:46:01;6.13;;;5.63;;
9720;SDS011;4899;42.644;23.366;2023-10-19T07:48:27;7.03;;;6.40;;
9720;SDS011;4899;42.644;23.366;2023-10-19T07:50:52;7.37;;;6.30;;
9720;SDS011;4899;42.644;23.366;2023-10-19T07:53:18;7.10;;;6.40;;
9720;SDS011;4899;42.644;23.366;2023-10-19T07:55:43;7.33;;;6.63;;
9720;SDS011;4899;42.644;23.366;2023-10-19T07:58:09;7.30;;;6.60;;
9720;SDS011;4899;42.644;23.366;2023-10-19T08:00:35;6.80;;;6.17;;
9720;SDS011;4899;42.644;23.366;2023-10-19T08:03:01;7.93;;;7.10;;
9720;SDS011;4899;42.644;23.366;2023-10-19T08:05:26;10.07;;;7.67;;
9720;SDS011;4899;42.644;23.366;2023-10-19T08:07:52;8.00;;;7.20;;
9720;SDS011;4899;42.644;23.366;2023-10-19T08:10:18;8.07;;;7.37;;
9720;SDS011;4899;42.644;23.366;2023-10-19T08:12:44;9.20;;;6.87;;
9720;SDS011;4899;42.644;23.366;2023-10-19T08:15:12;7.93;;;7.23;;
9720;SDS011;4899;42.644;23.366;2023-10-19T08:17:39;8.53;;;7.73;;
9720;SDS011;4899;42.644;23.366;2023-10-19T08:20:05;8.37;;;7.57;;
9720;SDS011;4899;42.644;23.366;2023-10-19T08:22:34;10.17;;;9.17;;
9720;SDS011;4899;42.644;23.366;2023-10-19T08:24:59;10.27;;;9.27;;
9720;SDS011;4899;42.644;23.366;2023-10-19T08:27:24;10.10;;;9.10;;
9720;SDS011;4899;42.644;23.366;2023-10-19T08:29:49;10.47;;;9.17;;
9720;SDS011;4899;42.644;23.366;2023-10-19T08:32:15;10.30;;;9.30;;
9720;SDS011;4899;42.644;23.366;2023-10-19T08:34:41;9.90;;;9.00;;
9720;SDS011;4899;42.644;23.366;2023-10-19T08:37:06;9.87;;;8.97;;
9720;SDS011;4899;42.644;23.366;2023-10-19T08:39:32;9.87;;;8.97;;
9720;SDS011;4899;42.644;23.366;2023-10-19T08:42:02;10.70;;;9.57;;
9720;SDS011;4899;42.644;23.366;2023-10-19T08:44:27;9.67;;;8.83;;
9720;SDS011;4899;42.644;23.366;2023-10-19T08:46:52;10.73;;;9.07;;
9720;SDS011;4899;42.644;23.366;2023-10-19T08:49:18;10.30;;;9.40;;
9720;SDS011;4899;42.644;23.366;2023-10-19T08:51:45;10.47;;;9.47;;
9720;SDS011;4899;42.644;23.366;2023-10-19T08:54:11;9.93;;;9.03;;
9720;SDS011;4899;42.644;23.366;2023-10-19T08:56:39;10.23;;;9.33;;
9720;SDS011;4899;42.644;23.366;2023-10-19T08:59:06;10.20;;;9.30;;
9720;SDS011;4899;42.644;23.366;2023-10-19T09:01:31;10.23;;;9.10;;
9720;SDS011;4899;42.644;23.366;2023-10-19T09:03:57;9.80;;;9.00;;
9720;SDS011;4899;42.644;23.366;2023-10-19T09:06:23;9.60;;;8.50;;
9720;SDS011;4899;42.644;23.366;2023-10-19T09:08:48;10.10;;;9.20;;
9720;SDS011;4899;42.644;23.366;2023-10-19T09:11:16;9.77;;;8.77;;
9720;SDS011;4899;42.644;23.366;2023-10-19T09:16:14;9.43;;;8.63;;
9720;SDS011;4899;42.644;23.366;2023-10-19T09:18:39;9.23;;;8.33;;
9720;SDS011;4899;42.644;23.366;2023-10-19T09:21:06;10.13;;;8.83;;
9720;SDS011;4899;42.644;23.366;2023-10-19T09:23:37;9.23;;;8.43;;
9720;SDS011;4899;42.644;23.366;2023-10-19T09:26:02;10.23;;;8.43;;
9720;SDS011;4899;42.644;23.366;2023-10-19T09:28:28;7.80;;;6.83;;
9720;SDS011;4899;42.644;23.366;2023-10-19T09:30:53;7.40;;;6.67;;
9720;SDS011;4899;42.644;23.366;2023-10-19T09:33:20;7.60;;;6.93;;
9720;SDS011;4899;42.644;23.366;2023-10-19T09:35:47;7.73;;;7.03;;
9720;SDS011;4899;42.644;23.366;2023-10-19T09:38:14;7.50;;;6.80;;
9720;SDS011;4899;42.644;23.366;2023-10-19T09:40:40;7.70;;;6.87;;
9720;SDS011;4899;42.644;23.366;2023-10-19T09:43:07;6.70;;;6.10;;
9720;SDS011;4899;42.644;23.366;2023-10-19T09:45:34;7.13;;;6.37;;
9720;SDS011;4899;42.644;23.366;2023-10-19T09:48:02;7.30;;;6.70;;
9720;SDS011;4899;42.644;23.366;2023-10-19T09:50:28;7.23;;;6.53;;
9720;SDS011;4899;42.644;23.366;2023-10-19T09:52:54;7.60;;;6.37;;
9720;SDS011;4899;42.644;23.366;2023-10-19T09:55:30;6.73;;;6.23;;
9720;SDS011;4899;42.644;23.366;2023-10-19T09:57:58;7.13;;;5.93;;
9720;SDS011;4899;42.644;23.366;2023-10-19T10:00:24;7.23;;;6.53;;
9720;SDS011;4899;42.644;23.366;2023-10-19T10:02:50;7.47;;;6.77;;
9720;SDS011;4899;42.644;23.366;2023-10-19T10:05:44;8.53;;;7.63;;
9720;SDS011;4899;42.644;23.366;2023-10-19T10:10:44;9.00;;;7.73;;
9720;SDS011;4899;42.644;23.366;2023-10-19T10:16:00;8.50;;;7.73;;
9720;SDS011;4899;42.644;23.366;2023-10-19T10:18:29;7.53;;;6.93;;
9720;SDS011;4899;42.644;23.366;2023-10-19T10:26:07;8.17;;;7.47;;
9720;SDS011;4899;42.644;23.366;2023-10-19T10:28:35;9.13;;;7.10;;
9720;SDS011;4899;42.644;23.366;2023-10-19T10:31:14;7.77;;;6.93;;
9720;SDS011;4899;42.644;23.366;2023-10-19T10:36:05;8.10;;;7.30;;
9720;SDS011;4899;42.644;23.366;2023-10-19T10:38:33;7.60;;;6.87;;
9720;SDS011;4899;42.644;23.366;2023-10-19T10:40:58;8.77;;;7.37;;
9720;SDS011;4899;42.644;23.366;2023-10-19T10:43:23;7.70;;;6.90;;
9720;SDS011;4899;42.644;23.366;2023-10-19T10:45:48;8.23;;;7.10;;
9720;SDS011;4899;42.644;23.366;2023-10-19T10:48:14;9.37;;;6.67;;
9720;SDS011;4899;42.644;23.366;2023-10-19T10:50:40;8.03;;;7.23;;
9720;SDS011;4899;42.644;23.366;2023-10-19T10:53:06;7.43;;;6.67;;
9720;SDS011;4899;42.644;23.366;2023-10-19T10:55:31;7.57;;;6.93;;
9720;SDS011;4899;42.644;23.366;2023-10-19T10:57:57;7.13;;;6.50;;
9720;SDS011;4899;42.644;23.366;2023-10-19T11:00:23;7.40;;;6.70;;
9720;SDS011;4899;42.644;23.366;2023-10-19T11:03:01;6.60;;;6.00;;
9720;SDS011;4899;42.644;23.366;2023-10-19T11:05:26;7.90;;;6.20;;
9720;SDS011;4899;42.644;23.366;2023-10-19T11:08:11;7.00;;;6.20;;
9720;SDS011;4899;42.644;23.366;2023-10-19T11:10:41;7.37;;;6.67;;
9720;SDS011;4899;42.644;23.366;2023-10-19T11:13:12;7.43;;;6.67;;
9720;SDS011;4899;42.644;23.366;2023-10-19T11:15:38;9.00;;;6.90;;
9720;SDS011;4899;42.644;23.366;2023-10-19T11:18:04;7.33;;;6.73;;
9720;SDS011;4899;42.644;23.366;2023-10-19T11:20:30;7.07;;;6.47;;
9720;SDS011;4899;42.644;23.366;2023-10-19T11:22:56;6.53;;;6.03;;
9720;SDS011;4899;42.644;23.366;2023-10-19T11:27:47;7.57;;;6.83;;
9720;SDS011;4899;42.644;23.366;2023-10-19T11:30:12;7.77;;;7.07;;
9720;SDS011;4899;42.644;23.366;2023-10-19T11:32:38;7.23;;;6.73;;
9720;SDS011;4899;42.644;23.366;2023-10-19T11:35:05;8.17;;;7.37;;
9720;SDS011;4899;42.644;23.366;2023-10-19T11:37:54;8.03;;;7.43;;
9720;SDS011;4899;42.644;23.366;2023-10-19T11:40:20;7.30;;;6.70;;
9720;SDS011;4899;42.644;23.366;2023-10-19T11:42:46;7.72;;;6.93;;
9720;SDS011;4899;42.644;23.366;2023-10-19T11:45:12;7.35;;;6.68;;
9720;SDS011;4899;42.644;23.366;2023-10-19T11:47:37;7.10;;;6.57;;
9720;SDS011;4899;42.644;23.366;2023-10-19T11:50:03;7.07;;;6.57;;
9720;SDS011;4899;42.644;23.366;2023-10-19T11:52:28;6.38;;;5.85;;
9720;SDS011;4899;42.644;23.366;2023-10-19T11:54:55;6.60;;;6.15;;
9720;SDS011;4899;42.644;23.366;2023-10-19T11:57:20;6.45;;;6.05;;
9720;SDS011;4899;42.644;23.366;2023-10-19T11:59:46;6.13;;;5.63;;
9720;SDS011;4899;42.644;23.366;2023-10-19T12:02:17;6.35;;;5.90;;
9720;SDS011;4899;42.644;23.366;2023-10-19T12:04:43;6.30;;;5.82;;
9720;SDS011;4899;42.644;23.366;2023-10-19T12:07:09;6.18;;;5.35;;
9720;SDS011;4899;42.644;23.366;2023-10-19T12:09:34;5.55;;;5.15;;
9720;SDS011;4899;42.644;23.366;2023-10-19T12:12:01;7.40;;;5.63;;
9720;SDS011;4899;42.644;23.366;2023-10-19T12:14:28;6.53;;;6.00;;
9720;SDS011;4899;42.644;23.366;2023-10-19T12:16:53;7.22;;;6.53;;
9720;SDS011;4899;42.644;23.366;2023-10-19T12:19:19;9.93;;;6.38;;
9720;SDS011;4899;42.644;23.366;2023-10-19T12:21:44;5.95;;;5.55;;
9720;SDS011;4899;42.644;23.366;2023-10-19T12:24:10;5.82;;;5.35;;
9720;SDS011;4899;42.644;23.366;2023-10-19T12:26:35;6.18;;;5.55;;
9720;SDS011;4899;42.644;23.366;2023-10-19T12:29:00;5.80;;;5.40;;
9720;SDS011;4899;42.644;23.366;2023-10-19T12:31:26;7.03;;;5.47;;
9720;SDS011;4899;42.644;23.366;2023-10-19T12:33:51;5.75;;;5.25;;
9720;SDS011;4899;42.644;23.366;2023-10-19T12:36:17;6.57;;;5.70;;
9720;SDS011;4899;42.644;23.366;2023-10-19T12:38:59;5.95;;;5.40;;
9720;SDS011;4899;42.644;23.366;2023-10-19T12:41:25;6.53;;;5.90;;
9720;SDS011;4899;42.644;23.366;2023-10-19T12:43:51;5.85;;;5.35;;
9720;SDS011;4899;42.644;23.366;2023-10-19T12:46:17;6.88;;;6.05;;
9720;SDS011;4899;42.644;23.366;2023-10-19T12:48:44;7.72;;;5.65;;
9720;SDS011;4899;42.644;23.366;2023-10-19T12:51:12;5.75;;;4.90;;
9720;SDS011;4899;42.644;23.366;2023-10-19T12:53:38;5.85;;;5.32;;
9720;SDS011;4899;42.644;23.366;2023-10-19T12:56:04;4.85;;;4.35;;
9720;SDS011;4899;42.644;23.366;2023-10-19T12:58:29;15.77;;;14.52;;
9720;SDS011;4899;42.644;23.366;2023-10-19T13:00:54;5.40;;;4.90;;
9720;SDS011;4899;42.644;23.366;2023-10-19T13:03:21;6.68;;;6.13;;
9720;SDS011;4899;42.644;23.366;2023-10-19T13:05:47;5.28;;;4.97;;
9720;SDS011;4899;42.644;23.366;2023-10-19T13:08:14;4.72;;;4.43;;
9720;SDS011;4899;42.644;23.366;2023-10-19T13:10:41;5.38;;;4.88;;
9720;SDS011;4899;42.644;23.366;2023-10-19T13:13:10;4.88;;;4.53;;
9720;SDS011;4899;42.644;23.366;2023-10-19T13:15:40;4.93;;;4.53;;
9720;SDS011;4899;42.644;23.366;2023-10-19T13:18:07;4.70;;;4.38;;
9720;SDS011;4899;42.644;23.366;2023-10-19T13:20:34;6.40;;;5.05;;
9720;SDS011;4899;42.644;23.366;2023-10-19T13:23:01;4.65;;;4.35;;
9720;SDS011;4899;42.644;23.366;2023-10-19T13:25:28;6.55;;;4.85;;
9720;SDS011;4899;42.644;23.366;2023-10-19T13:28:05;4.82;;;4.32;;
9720;SDS011;4899;42.644;23.366;2023-10-19T13:30:30;4.68;;;4.15;;
9720;SDS011;4899;42.644;23.366;2023-10-19T13:32:56;5.03;;;4.63;;
9720;SDS011;4899;42.644;23.366;2023-10-19T13:35:21;14.48;;;13.38;;
9720;SDS011;4899;42.644;23.366;2023-10-19T13:37:47;9.02;;;8.25;;
9720;SDS011;4899;42.644;23.366;2023-10-19T13:40:12;6.97;;;6.18;;
9720;SDS011;4899;42.644;23.366;2023-10-19T13:42:38;5.15;;;4.75;;
9720;SDS011;4899;42.644;23.366;2023-10-19T13:45:04;7.40;;;5.03;;
9720;SDS011;4899;42.644;23.366;2023-10-19T13:47:29;6.32;;;5.55;;
9720;SDS011;4899;42.644;23.366;2023-10-19T13:49:58;6.43;;;5.32;;
9720;SDS011;4899;42.644;23.366;2023-10-19T13:52:24;5.25;;;4.88;;
9720;SDS011;4899;42.644;23.366;2023-10-19T13:54:50;4.55;;;4.15;;
9720;SDS011;4899;42.644;23.366;2023-10-19T13:57:16;7.50;;;5.05;;
9720;SDS011;4899;42.644;23.366;2023-10-19T13:59:41;6.35;;;4.43;;
9720;SDS011;4899;42.644;23.366;2023-10-19T14:02:06;4.72;;;4.32;;
9720;SDS011;4899;42.644;23.366;2023-10-19T14:04:33;14.27;;;12.93;;
9720;SDS011;4899;42.644;23.366;2023-10-19T14:06:58;6.03;;;5.15;;
9720;SDS011;4899;42.644;23.366;2023-10-19T14:09:24;8.68;;;7.85;;
9720;SDS011;4899;42.644;23.366;2023-10-19T14:11:51;6.88;;;6.18;;
9720;SDS011;4899;42.644;23.366;2023-10-19T14:14:16;5.85;;;4.47;;
9720;SDS011;4899;42.644;23.366;2023-10-19T14:16:42;7.25;;;4.82;;
9720;SDS011;4899;42.644;23.366;2023-10-19T14:19:09;7.22;;;6.57;;
9720;SDS011;4899;42.644;23.366;2023-10-19T14:21:34;6.20;;;4.65;;
9720;SDS011;4899;42.644;23.366;2023-10-19T14:24:03;8.73;;;7.97;;
9720;SDS011;4899;42.644;23.366;2023-10-19T14:26:28;28.55;;;26.30;;
9720;SDS011;4899;42.644;23.366;2023-10-19T14:28:53;4.93;;;4.53;;
9720;SDS011;4899;42.644;23.366;2023-10-19T14:31:19;6.18;;;5.63;;
9720;SDS011;4899;42.644;23.366;2023-10-19T14:33:45;6.40;;;4.85;;
9720;SDS011;4899;42.644;23.366;2023-10-19T14:36:10;4.90;;;4.25;;
9720;SDS011;4899;42.644;23.366;2023-10-19T14:38:36;5.00;;;4.60;;
9720;SDS011;4899;42.644;23.366;2023-10-19T14:41:03;4.88;;;4.40;;
9720;SDS011;4899;42.644;23.366;2023-10-19T14:43:28;4.35;;;4.05;;
9720;SDS011;4899;42.644;23.366;2023-10-19T14:45:54;8.75;;;6.82;;
9720;SDS011;4899;42.644;23.366;2023-10-19T14:48:22;9.63;;;8.70;;
9720;SDS011;4899;42.644;23.366;2023-10-19T14:50:47;5.78;;;5.28;;
9720;SDS011;4899;42.644;23.366;2023-10-19T14:53:12;6.75;;;5.43;;
9720;SDS011;4899;42.644;23.366;2023-10-19T14:55:38;4.40;;;4.00;;
9720;SDS011;4899;42.644;23.366;2023-10-19T14:58:03;4.38;;;3.92;;
9720;SDS011;4899;42.644;23.366;2023-10-19T15:00:31;5.30;;;4.43;;
9720;SDS011;4899;42.644;23.366;2023-10-19T15:03:01;5.63;;;4.23;;
9720;SDS011;4899;42.644;23.366;2023-10-19T15:05:32;6.67;;;4.40;;
9720;SDS011;4899;42.644;23.366;2023-10-19T15:08:00;4.83;;;4.33;;
9720;SDS011;4899;42.644;23.366;2023-10-19T15:10:26;7.67;;;4.97;;
9720;SDS011;4899;42.644;23.366;2023-10-19T15:12:52;6.83;;;4.50;;
9720;SDS011;4899;42.644;23.366;2023-10-19T15:15:18;8.70;;;5.00;;
9720;SDS011;4899;42.644;23.366;2023-10-19T15:17:44;6.83;;;4.83;;